Morganfld, Kentucky
Current Conditions -  °F | °C
As of 8:15 AM on Saturday 20 Dec 2014 (Local Time) from KEHR Reporting Station
Overcast Overcast  
Wind Chill: 25°   Ceiling: 6000
Heat Index: 30°   Visibility: 10mi
Dew Point: 25°   Wind: 5mph
Humidity: 80%   Direction: 40°NE
Pressure: 30.3"   Gusts: NA
Location:  37.6418°N, 87.8654°W
Report Text: KEHR 201415Z AUTO 04004KT 10SM OVC060 M01/M04 A3030 RMK AO1
Loading
Personal Weather Stations






























Interactive Weather Map New forecast layout! Learn more

10-Day Weather Forecast

Advertisements
Track Severe Weather on mobile